Time;durP1;ratioP1;P1;durP2;ratioP2;P2;SDS_P1;SDS_P2;PMS_P1;PMS_P2;Temp;Humidity;BMP_temperature;BMP_pressure;BME280_temperature;BME280_humidity;BME280_pressure;Samples;Min_cycle;Max_cycle;Signal;HPM_P1;HPM_P2
2021/05/10 00:01:05;;;;;;;2.42;1.77;;;23.70;34.60;;;;;;6072097;28;80742;-66
2021/05/10 00:04:05;;;;;;;3.97;1.90;;;23.70;34.70;;;;;;6064319;28;80339;-66
2021/05/10 00:07:08;;;;;;;2.55;1.92;;;23.70;34.60;;;;;;6061255;28;80529;-65
2021/05/10 00:10:09;;;;;;;3.03;1.80;;;23.60;35.10;;;;;;6064615;28;83419;-65
2021/05/10 00:13:11;;;;;;;2.50;2.00;;;23.70;34.50;;;;;;6062171;28;80104;-65
2021/05/10 00:16:11;;;;;;;3.83;2.30;;;23.70;34.60;;;;;;6065015;28;80449;-64
2021/05/10 00:19:12;;;;;;;3.97;2.22;;;23.70;34.60;;;;;;6069139;28;80276;-65
2021/05/10 00:22:12;;;;;;;3.08;1.70;;;23.70;34.90;;;;;;6061963;28;80567;-65
2021/05/10 00:25:13;;;;;;;3.00;1.95;;;23.70;34.50;;;;;;6061920;28;80490;-64
2021/05/10 00:28:13;;;;;;;2.17;1.55;;;23.70;34.50;;;;;;6060860;28;81771;-65
2021/05/10 00:31:14;;;;;;;2.90;2.15;;;23.70;34.70;;;;;;6064754;28;81091;-65
2021/05/10 00:34:14;;;;;;;3.38;1.88;;;23.70;34.50;;;;;;6064553;28;81027;-65
2021/05/10 00:37:15;;;;;;;2.85;2.13;;;23.70;34.50;;;;;;6062058;28;80649;-65
2021/05/10 00:40:15;;;;;;;5.90;2.58;;;23.70;34.30;;;;;;6061248;28;80243;-64
2021/05/10 00:43:16;;;;;;;3.05;1.90;;;23.70;34.40;;;;;;6063908;28;82317;-64
2021/05/10 00:46:16;;;;;;;2.30;1.80;;;23.70;34.50;;;;;;6067989;28;80368;-65
2021/05/10 00:49:17;;;;;;;2.72;2.20;;;23.70;34.40;;;;;;6060350;28;80353;-65
2021/05/10 00:52:17;;;;;;;4.72;2.15;;;23.60;34.70;;;;;;6063200;28;80600;-65
2021/05/10 00:55:18;;;;;;;1.90;1.70;;;23.70;35.40;;;;;;6061848;28;81284;-66
2021/05/10 00:58:18;;;;;;;2.28;1.67;;;23.70;34.80;;;;;;6062504;28;81110;-65
2021/05/10 01:01:19;;;;;;;2.85;1.63;;;23.70;34.80;;;;;;6063192;28;81464;-66
2021/05/10 01:04:19;;;;;;;1.92;1.70;;;23.70;35.10;;;;;;6062240;28;80638;-66
2021/05/10 01:07:20;;;;;;;2.80;1.75;;;23.70;35.10;;;;;;6064589;28;80607;-66
2021/05/10 01:10:20;;;;;;;2.28;1.90;;;23.70;35.10;;;;;;6064236;28;80610;-67
2021/05/10 01:13:21;;;;;;;2.67;1.90;;;23.70;34.90;;;;;;6062151;28;81666;-66
2021/05/10 01:16:21;;;;;;;2.83;1.92;;;23.70;35.20;;;;;;6063372;28;80897;-65
2021/05/10 01:19:22;;;;;;;4.10;2.45;;;23.70;35.00;;;;;;6065577;28;80789;-65
2021/05/10 01:22:23;;;;;;;2.85;1.88;;;23.60;34.50;;;;;;6063102;28;81597;-66
2021/05/10 01:25:23;;;;;;;2.20;1.85;;;23.60;34.80;;;;;;6067975;28;80945;-65
2021/05/10 01:28:24;;;;;;;2.22;1.73;;;23.70;35.50;;;;;;6061854;28;80876;-65
2021/05/10 01:31:24;;;;;;;5.50;2.58;;;23.60;35.00;;;;;;6065952;28;80941;-66
2021/05/10 01:34:25;;;;;;;3.33;1.98;;;23.60;34.90;;;;;;6061143;28;80531;-65
2021/05/10 01:37:25;;;;;;;3.28;1.90;;;23.60;34.90;;;;;;6063433;28;82521;-65
2021/05/10 01:40:26;;;;;;;2.08;1.70;;;23.60;34.70;;;;;;6061096;28;81469;-65
2021/05/10 01:43:26;;;;;;;2.00;1.77;;;23.60;34.30;;;;;;6067499;28;81930;-65
2021/05/10 01:46:27;;;;;;;3.72;2.10;;;23.60;34.90;;;;;;6064190;28;81357;-65
2021/05/10 01:49:27;;;;;;;2.97;1.98;;;23.60;34.90;;;;;;6060822;28;81921;-65
2021/05/10 01:52:28;;;;;;;2.88;1.92;;;23.60;34.30;;;;;;6075445;28;81582;-66
2021/05/10 01:55:28;;;;;;;3.10;2.10;;;23.60;34.70;;;;;;6068423;28;80864;-66
2021/05/10 01:58:29;;;;;;;2.47;1.77;;;23.70;34.40;;;;;;6061517;28;80612;-66
2021/05/10 02:01:29;;;;;;;3.22;1.95;;;23.70;34.10;;;;;;6069599;28;81807;-66
2021/05/10 02:04:30;;;;;;;2.20;1.65;;;23.60;34.10;;;;;;6067336;28;80516;-66
2021/05/10 02:07:32;;;;;;;2.88;2.00;;;23.60;34.70;;;;;;6067488;28;81900;-66
2021/05/10 02:10:33;;;;;;;3.25;1.92;;;23.60;34.20;;;;;;6065227;28;81335;-66
2021/05/10 02:13:33;;;;;;;2.53;1.80;;;23.60;34.20;;;;;;6059377;28;81759;-65
2021/05/10 02:16:34;;;;;;;2.00;1.77;;;23.60;35.00;;;;;;6063094;28;80953;-66
2021/05/10 02:19:34;;;;;;;2.65;1.80;;;23.60;34.20;;;;;;6060235;28;80481;-65
2021/05/10 02:22:35;;;;;;;3.00;1.85;;;23.60;34.80;;;;;;6064394;28;80424;-65
2021/05/10 02:25:35;;;;;;;2.65;1.60;;;23.60;34.20;;;;;;6062162;28;82829;-65
2021/05/10 02:28:37;;;;;;;3.40;2.03;;;23.60;34.70;;;;;;6064413;28;81688;-66
2021/05/10 02:31:38;;;;;;;1.67;1.50;;;23.70;34.30;;;;;;6061543;28;80590;-66
2021/05/10 02:34:38;;;;;;;3.67;2.35;;;23.60;34.30;;;;;;6064146;28;83675;-66
2021/05/10 02:37:39;;;;;;;2.78;2.00;;;23.60;34.20;;;;;;6058085;28;81870;-65
2021/05/10 02:40:39;;;;;;;2.38;1.80;;;23.60;34.10;;;;;;6063029;28;83132;-66
2021/05/10 02:43:40;;;;;;;2.45;1.75;;;23.60;33.60;;;;;;6061764;28;80657;-67
2021/05/10 02:46:41;;;;;;;3.17;1.70;;;23.60;33.50;;;;;;6061897;28;80190;-66
2021/05/10 02:49:41;;;;;;;2.65;1.80;;;23.60;33.80;;;;;;6065487;28;80535;-66
2021/05/10 02:52:42;;;;;;;2.70;1.60;;;23.60;33.90;;;;;;6065456;28;80410;-67
2021/05/10 02:55:42;;;;;;;3.67;1.92;;;23.60;33.60;;;;;;6065141;28;80461;-64
2021/05/10 02:58:43;;;;;;;2.28;1.92;;;23.60;33.80;;;;;;6062872;28;80325;-62
2021/05/10 03:01:44;;;;;;;2.70;1.65;;;23.60;33.50;;;;;;6057581;28;81514;-64
2021/05/10 03:04:44;;;;;;;2.25;1.50;;;23.60;33.30;;;;;;6061206;28;80391;-66
2021/05/10 03:07:45;;;;;;;1.80;1.52;;;23.60;33.20;;;;;;6060571;28;83878;-67
2021/05/10 03:10:45;;;;;;;3.80;1.88;;;23.60;33.40;;;;;;6065363;28;84660;-67
2021/05/10 03:13:46;;;;;;;2.00;1.63;;;23.60;33.20;;;;;;6064767;28;80636;-66
2021/05/10 03:16:46;;;;;;;1.98;1.73;;;23.60;33.20;;;;;;6058297;28;81523;-66
2021/05/10 03:19:47;;;;;;;1.58;1.48;;;23.60;32.80;;;;;;6064164;28;80419;-65
2021/05/10 03:22:51;;;;;;;1.80;1.50;;;23.60;32.70;;;;;;6059260;28;80416;-66
2021/05/10 03:25:51;;;;;;;2.70;1.52;;;23.60;33.00;;;;;;6066635;28;81662;-66
2021/05/10 03:28:52;;;;;;;2.95;1.60;;;23.60;32.80;;;;;;6063832;28;80906;-64
2021/05/10 03:31:53;;;;;;;4.78;1.75;;;23.60;32.90;;;;;;6066031;28;80644;-66
2021/05/10 03:34:53;;;;;;;1.65;1.55;;;23.60;32.70;;;;;;6063575;28;80572;-64
2021/05/10 03:37:54;;;;;;;1.80;1.45;;;23.60;32.10;;;;;;6066820;28;81651;-66
2021/05/10 03:40:54;;;;;;;2.17;1.55;;;23.50;32.90;;;;;;6062546;28;80899;-64
2021/05/10 03:43:57;;;;;;;2.90;1.80;;;23.60;32.60;;;;;;6061849;28;80844;-64
2021/05/10 03:46:58;;;;;;;2.10;1.63;;;23.60;33.40;;;;;;6061069;28;80438;-67
2021/05/10 03:49:59;;;;;;;2.60;1.30;;;23.60;32.90;;;;;;6060989;28;80370;-63
2021/05/10 03:52:59;;;;;;;2.58;1.20;;;23.50;32.40;;;;;;6062796;28;80724;-63
2021/05/10 03:56:00;;;;;;;1.58;1.40;;;23.60;32.00;;;;;;6067256;28;82295;-65
2021/05/10 03:59:00;;;;;;;2.03;1.63;;;23.60;32.00;;;;;;6061516;28;88872;-66
2021/05/10 04:02:02;;;;;;;1.20;1.10;;;23.60;32.90;;;;;;6057756;28;81021;-63
2021/05/10 04:14:44;;;;;;;2.00;1.50;;;23.60;33.60;;;;;;6062088;28;81062;-65
2021/05/10 04:17:45;;;;;;;1.52;1.20;;;23.60;32.90;;;;;;6068252;28;80597;-66
2021/05/10 04:20:45;;;;;;;2.25;1.65;;;23.60;34.20;;;;;;6054460;28;83128;-65
2021/05/10 04:23:46;;;;;;;3.38;1.35;;;23.60;33.60;;;;;;6061332;28;81558;-62
2021/05/10 04:26:46;;;;;;;6.28;1.90;;;23.70;33.70;;;;;;6063407;28;80520;-65
2021/05/10 04:29:47;;;;;;;2.60;1.70;;;23.60;33.60;;;;;;6062750;28;80894;-64
2021/05/10 04:32:48;;;;;;;3.15;1.50;;;23.70;34.50;;;;;;6060699;28;81746;-64
2021/05/10 04:35:48;;;;;;;1.63;1.50;;;23.70;34.40;;;;;;6061533;28;81163;-65
2021/05/10 04:38:49;;;;;;;2.65;1.67;;;23.70;34.70;;;;;;6058083;28;81087;-63
2021/05/10 04:41:49;;;;;;;4.65;2.10;;;23.60;34.40;;;;;;6058857;28;80853;-62
2021/05/10 04:44:50;;;;;;;3.60;1.88;;;23.70;35.10;;;;;;6062366;28;80550;-65
2021/05/10 04:47:51;;;;;;;3.55;2.17;;;23.70;35.10;;;;;;6061782;28;81506;-65
2021/05/10 04:50:51;;;;;;;3.42;2.03;;;23.70;34.20;;;;;;6062928;28;80550;-64
2021/05/10 04:53:52;;;;;;;5.10;2.20;;;23.60;33.80;;;;;;6056198;28;83553;-64
2021/05/10 04:56:52;;;;;;;7.03;3.85;;;23.60;33.60;;;;;;6060861;28;80308;-66
2021/05/10 04:59:53;;;;;;;10.93;6.35;;;23.60;33.60;;;;;;6060969;28;81194;-65
2021/05/10 05:02:53;;;;;;;14.38;6.32;;;23.70;34.40;;;;;;6065816;28;80783;-65
2021/05/10 05:05:54;;;;;;;17.50;7.78;;;23.60;33.70;;;;;;6058204;28;81439;-65
2021/05/10 05:08:54;;;;;;;17.30;7.38;;;23.60;34.00;;;;;;6062500;28;81800;-65
2021/05/10 05:11:55;;;;;;;15.77;8.15;;;23.60;33.90;;;;;;6063102;28;81491;-64
2021/05/10 05:14:55;;;;;;;12.27;6.22;;;23.70;34.40;;;;;;6063272;28;80427;-65
2021/05/10 05:17:56;;;;;;;13.30;5.70;;;23.70;34.20;;;;;;6054780;28;82621;-65
2021/05/10 05:20:56;;;;;;;10.85;5.45;;;23.70;34.10;;;;;;6063837;28;80322;-65
2021/05/10 05:23:57;;;;;;;7.50;4.45;;;23.70;33.80;;;;;;6064497;28;80574;-65
2021/05/10 05:26:57;;;;;;;9.48;4.53;;;23.70;33.60;;;;;;6059060;28;80716;-64
2021/05/10 05:29:58;;;;;;;7.10;4.30;;;23.60;33.50;;;;;;6062219;28;82677;-64
2021/05/10 05:32:59;;;;;;;12.82;3.72;;;23.60;33.30;;;;;;6057354;28;81288;-65
2021/05/10 05:35:59;;;;;;;7.55;3.67;;;23.70;33.40;;;;;;6054384;28;81379;-65
2021/05/10 05:39:00;;;;;;;5.35;2.97;;;23.70;33.50;;;;;;6053559;28;81697;-66
2021/05/10 05:42:00;;;;;;;5.88;3.50;;;23.70;33.20;;;;;;6056998;28;86509;-65
2021/05/10 05:45:02;;;;;;;5.80;3.47;;;23.70;33.30;;;;;;6060709;28;85116;-67
2021/05/10 05:48:02;;;;;;;8.00;3.13;;;23.70;33.50;;;;;;6065475;28;80574;-65
2021/05/10 05:51:03;;;;;;;8.45;3.03;;;23.70;33.90;;;;;;6056728;28;80390;-67
2021/05/10 05:54:03;;;;;;;5.38;3.03;;;23.70;34.70;;;;;;6058035;28;81478;-65
2021/05/10 05:57:04;;;;;;;7.85;2.72;;;23.80;34.90;;;;;;6060641;28;81069;-65
2021/05/10 06:00:04;;;;;;;5.20;2.85;;;23.80;35.20;;;;;;6056983;28;81487;-66
2021/05/10 06:03:10;;;;;;;11.65;2.83;;;23.80;35.20;;;;;;6057545;28;80453;-66
2021/05/10 06:06:11;;;;;;;7.07;2.95;;;23.80;35.30;;;;;;6057370;28;80735;-66
2021/05/10 06:09:11;;;;;;;9.75;2.72;;;23.80;36.20;;;;;;6060929;28;80558;-66
2021/05/10 06:12:12;;;;;;;5.22;2.95;;;23.90;35.80;;;;;;6054060;28;80643;-65
2021/05/10 06:15:13;;;;;;;6.43;3.05;;;23.80;35.60;;;;;;6061383;28;80451;-67
2021/05/10 06:18:13;;;;;;;4.90;2.35;;;23.80;35.40;;;;;;6061019;28;80770;-64
2021/05/10 06:21:14;;;;;;;7.88;3.22;;;23.80;35.20;;;;;;6067785;28;80515;-66
2021/05/10 06:24:14;;;;;;;8.52;2.60;;;23.80;35.50;;;;;;6066267;28;81074;-64
2021/05/10 06:27:15;;;;;;;4.30;2.38;;;23.80;35.00;;;;;;6063499;28;80666;-63
2021/05/10 06:30:15;;;;;;;5.88;2.47;;;23.80;34.50;;;;;;6064903;28;81426;-64
2021/05/10 06:33:16;;;;;;;2.40;1.83;;;23.70;33.60;;;;;;6065560;28;81694;-66
2021/05/10 06:36:16;;;;;;;5.65;2.58;;;23.70;34.00;;;;;;6066626;28;82197;-65
2021/05/10 06:39:17;;;;;;;6.15;2.40;;;23.80;33.70;;;;;;6065728;28;81575;-66
2021/05/10 06:42:17;;;;;;;2.58;1.77;;;23.80;33.80;;;;;;6063236;28;80662;-65
2021/05/10 06:45:18;;;;;;;2.22;1.65;;;23.80;33.70;;;;;;6062638;28;80407;-66
2021/05/10 06:48:18;;;;;;;5.90;2.00;;;23.80;33.80;;;;;;6060700;28;80665;-66
2021/05/10 06:51:19;;;;;;;3.28;2.03;;;23.80;33.50;;;;;;6060762;28;80555;-66
2021/05/10 06:54:19;;;;;;;4.65;1.75;;;23.80;33.80;;;;;;6059054;28;81564;-65
2021/05/10 06:57:20;;;;;;;3.10;1.70;;;23.80;33.60;;;;;;6056937;28;80751;-66
2021/05/10 07:00:20;;;;;;;2.78;1.95;;;23.80;33.10;;;;;;6056590;28;81345;-65
2021/05/10 07:03:21;;;;;;;5.15;2.00;;;23.90;33.10;;;;;;6062702;28;80573;-67
2021/05/10 07:06:21;;;;;;;2.50;1.60;;;23.80;32.90;;;;;;6061100;28;80147;-67
2021/05/10 07:09:22;;;;;;;2.47;1.48;;;23.80;33.20;;;;;;6058152;28;80378;-65
2021/05/10 07:12:23;;;;;;;3.28;1.83;;;23.80;32.60;;;;;;6059367;28;80275;-63
2021/05/10 07:15:23;;;;;;;1.90;1.70;;;23.80;32.80;;;;;;6061119;28;81002;-65
2021/05/10 07:18:24;;;;;;;2.22;1.48;;;23.80;32.60;;;;;;6049915;28;81097;-66
2021/05/10 07:21:24;;;;;;;7.10;1.70;;;23.80;32.90;;;;;;6053452;28;80631;-65
2021/05/10 07:24:25;;;;;;;4.38;1.60;;;23.90;32.70;;;;;;6051742;28;81308;-66
2021/05/10 07:27:25;;;;;;;4.60;2.00;;;23.80;33.20;;;;;;6060475;28;82781;-65
2021/05/10 07:30:26;;;;;;;3.80;1.70;;;23.90;32.90;;;;;;6052217;28;80396;-68
2021/05/10 07:33:26;;;;;;;2.53;1.55;;;23.90;33.70;;;;;;6058174;28;80394;-69
2021/05/10 07:36:27;;;;;;;5.65;1.60;;;23.90;33.20;;;;;;6072129;28;83212;-68
2021/05/10 07:39:27;;;;;;;1.98;1.50;;;23.90;33.30;;;;;;6062287;28;80567;-66
2021/05/10 07:42:28;;;;;;;4.57;1.95;;;23.90;33.50;;;;;;6060287;28;81436;-69
2021/05/10 07:45:28;;;;;;;2.60;1.92;;;23.90;33.80;;;;;;6058078;28;81747;-68
2021/05/10 07:48:30;;;;;;;1.92;1.70;;;24.00;33.80;;;;;;6057605;28;81029;-67
2021/05/10 07:51:30;;;;;;;3.70;1.60;;;24.00;33.90;;;;;;6054377;28;81496;-64
2021/05/10 07:54:31;;;;;;;3.55;1.63;;;24.00;34.40;;;;;;6060935;28;80909;-63
2021/05/10 07:57:31;;;;;;;8.48;1.77;;;24.00;34.40;;;;;;6064339;28;80301;-66
2021/05/10 08:00:37;;;;;;;4.35;1.80;;;24.00;34.40;;;;;;6066590;28;80379;-65
2021/05/10 08:03:39;;;;;;;5.30;2.25;;;24.00;34.50;;;;;;6055920;28;80672;-66
2021/05/10 08:06:40;;;;;;;2.95;1.85;;;24.00;34.90;;;;;;6061644;28;81732;-66
2021/05/10 08:09:40;;;;;;;2.30;1.50;;;24.00;34.90;;;;;;6065191;28;82389;-66
2021/05/10 08:12:41;;;;;;;1.80;1.40;;;24.00;34.50;;;;;;6065427;28;80248;-65
2021/05/10 08:15:41;;;;;;;5.13;2.35;;;24.00;34.10;;;;;;6064567;28;81071;-65
2021/05/10 08:18:42;;;;;;;2.40;1.95;;;24.00;34.50;;;;;;6064450;28;80401;-66
2021/05/10 08:21:43;;;;;;;4.10;1.90;;;24.00;34.00;;;;;;6054607;28;80457;-66
2021/05/10 08:24:43;;;;;;;5.28;2.10;;;24.00;33.70;;;;;;6057549;28;80378;-65
2021/05/10 08:27:44;;;;;;;3.88;2.17;;;24.00;33.40;;;;;;6061866;28;80383;-64
2021/05/10 08:30:44;;;;;;;3.58;1.80;;;24.00;33.60;;;;;;6062914;28;83201;-65
2021/05/10 08:33:45;;;;;;;2.35;1.80;;;24.00;33.20;;;;;;6064291;28;80615;-65
2021/05/10 08:36:45;;;;;;;4.22;1.85;;;24.00;33.20;;;;;;6062319;28;80382;-64
2021/05/10 08:39:46;;;;;;;3.35;1.80;;;24.00;32.90;;;;;;6054117;28;81821;-64
2021/05/10 08:42:46;;;;;;;4.75;1.90;;;24.00;33.10;;;;;;6058714;28;80395;-63
2021/05/10 08:45:50;;;;;;;2.95;1.83;;;24.00;33.60;;;;;;6067174;28;80534;-64
2021/05/10 08:48:50;;;;;;;3.05;1.55;;;24.00;33.30;;;;;;6061695;28;82365;-63
2021/05/10 08:51:51;;;;;;;4.15;1.27;;;24.00;33.60;;;;;;6063975;28;80789;-64
2021/05/10 08:54:51;;;;;;;5.80;1.60;;;24.10;34.20;;;;;;6061975;28;80354;-64
2021/05/10 08:57:52;;;;;;;2.63;1.50;;;24.10;33.60;;;;;;6060419;28;81038;-64
2021/05/10 09:00:53;;;;;;;2.65;1.73;;;24.00;34.20;;;;;;6060739;28;81633;-64
2021/05/10 09:03:53;;;;;;;3.38;1.77;;;24.10;34.00;;;;;;6062351;28;83924;-64
2021/05/10 09:06:54;;;;;;;2.78;1.80;;;24.10;34.00;;;;;;6062590;28;80680;-64
2021/05/10 09:09:55;;;;;;;2.85;1.90;;;24.00;34.10;;;;;;6063417;28;81147;-64
2021/05/10 09:12:56;;;;;;;2.80;1.70;;;24.10;33.90;;;;;;6058545;28;84546;-64
2021/05/10 09:15:56;;;;;;;3.20;2.10;;;24.00;33.90;;;;;;6073747;28;82095;-64
2021/05/10 09:18:57;;;;;;;2.70;1.90;;;24.10;34.30;;;;;;6054455;28;81774;-64
2021/05/10 09:21:57;;;;;;;3.40;1.80;;;24.10;34.20;;;;;;6056436;28;80565;-67
2021/05/10 09:24:58;;;;;;;5.13;2.08;;;24.00;34.10;;;;;;6064955;28;80929;-66
2021/05/10 09:27:58;;;;;;;2.75;1.70;;;24.10;34.20;;;;;;6057413;28;82409;-64
2021/05/10 09:30:59;;;;;;;2.55;1.63;;;24.10;34.50;;;;;;6057206;28;81882;-67
2021/05/10 09:33:59;;;;;;;5.00;1.90;;;24.10;34.30;;;;;;6060702;28;80551;-67
2021/05/10 09:37:00;;;;;;;6.18;2.30;;;24.10;34.90;;;;;;6062417;28;80940;-66
2021/05/10 09:40:00;;;;;;;5.40;2.40;;;24.20;35.90;;;;;;6064822;28;81881;-68
2021/05/10 09:43:01;;;;;;;8.05;2.15;;;24.20;36.30;;;;;;6061039;28;80602;-67
2021/05/10 09:46:01;;;;;;;3.78;2.35;;;24.20;36.60;;;;;;6064308;28;80609;-68
2021/05/10 09:49:02;;;;;;;6.18;2.20;;;24.20;37.80;;;;;;6067144;28;80883;-68
2021/05/10 09:52:03;;;;;;;4.80;2.00;;;24.20;37.30;;;;;;6057346;28;81182;-68
2021/05/10 09:55:03;;;;;;;2.90;1.90;;;24.20;37.00;;;;;;6060337;28;81055;-68
2021/05/10 09:58:06;;;;;;;5.30;2.17;;;24.30;36.70;;;;;;6076836;28;80617;-69
2021/05/10 10:01:06;;;;;;;3.38;2.13;;;24.30;36.30;;;;;;6063777;28;80926;-68
2021/05/10 10:04:07;;;;;;;5.53;3.40;;;24.30;38.20;;;;;;6061981;28;82624;-68
2021/05/10 10:07:07;;;;;;;7.05;6.32;;;24.30;39.00;;;;;;6064337;28;80253;-68
2021/05/10 10:10:08;;;;;;;7.65;5.00;;;24.40;44.60;;;;;;6063361;28;81068;-68
2021/05/10 10:13:08;;;;;;;4.60;4.18;;;24.40;41.70;;;;;;6063073;28;80371;-68
2021/05/10 10:16:09;;;;;;;6.60;3.40;;;24.40;42.60;;;;;;6064756;28;80521;-67
2021/05/10 10:19:09;;;;;;;5.57;3.40;;;24.40;43.00;;;;;;6062649;28;84221;-66
2021/05/10 10:22:10;;;;;;;8.30;3.60;;;24.40;45.50;;;;;;6066040;28;80398;-67
2021/05/10 10:25:10;;;;;;;6.43;3.05;;;24.50;43.60;;;;;;6057837;28;82822;-67
2021/05/10 10:28:11;;;;;;;4.72;2.78;;;24.50;42.90;;;;;;6061931;28;81525;-67
2021/05/10 10:31:11;;;;;;;6.18;2.92;;;24.60;42.60;;;;;;6060845;28;80459;-67
2021/05/10 10:34:12;;;;;;;2.10;1.90;;;24.60;42.00;;;;;;6054478;28;81478;-65
2021/05/10 10:37:12;;;;;;;5.25;2.55;;;24.60;38.80;;;;;;6061285;28;80339;-67
2021/05/10 10:40:13;;;;;;;4.90;2.17;;;24.60;40.70;;;;;;6058698;28;81978;-67
2021/05/10 10:43:13;;;;;;;3.88;1.98;;;24.60;40.20;;;;;;6055704;28;80557;-66
2021/05/10 10:46:14;;;;;;;2.75;2.25;;;24.60;40.30;;;;;;6062234;28;81689;-66
2021/05/10 10:49:14;;;;;;;4.40;2.33;;;24.60;40.40;;;;;;6054215;28;80837;-66
2021/05/10 10:52:15;;;;;;;3.75;2.08;;;24.70;39.30;;;;;;6060782;28;81038;-66
2021/05/10 10:55:15;;;;;;;3.13;1.88;;;24.60;40.00;;;;;;6061740;28;82604;-67
2021/05/10 10:58:22;;;;;;;6.18;2.20;;;24.70;38.40;;;;;;6058415;28;81727;-67
2021/05/10 11:01:23;;;;;;;3.00;1.80;;;24.70;38.70;;;;;;6058048;28;84184;-67
2021/05/10 11:04:24;;;;;;;5.43;2.22;;;24.70;37.40;;;;;;6061935;28;81054;-68
2021/05/10 11:07:25;;;;;;;4.70;2.10;;;24.70;36.70;;;;;;6056634;28;81352;-65
2021/05/10 11:10:25;;;;;;;3.30;1.98;;;24.80;36.60;;;;;;6066271;28;81453;-64
2021/05/10 11:13:26;;;;;;;5.22;2.00;;;24.70;36.00;;;;;;6060570;28;80274;-63
2021/05/10 11:16:26;;;;;;;5.55;2.08;;;24.80;36.20;;;;;;6066698;28;83183;-64
2021/05/10 11:19:27;;;;;;;6.68;2.03;;;24.70;35.70;;;;;;6061730;28;80362;-66
2021/05/10 11:22:28;;;;;;;3.70;1.75;;;24.80;35.20;;;;;;6064020;28;81252;-67
2021/05/10 11:25:29;;;;;;;2.92;2.08;;;24.80;34.60;;;;;;6063826;28;81665;-66
2021/05/10 11:28:30;;;;;;;6.68;1.63;;;24.80;33.70;;;;;;6066106;28;81074;-68
2021/05/10 11:31:31;;;;;;;2.17;1.60;;;24.90;33.30;;;;;;6062428;28;85727;-68
2021/05/10 11:34:38;;;;;;;3.97;1.95;;;24.90;33.20;;;;;;6066252;28;80670;-67
2021/05/10 11:37:39;;;;;;;3.20;1.60;;;25.00;32.90;;;;;;6060395;28;81058;-67
2021/05/10 11:40:39;;;;;;;3.20;1.63;;;25.00;32.30;;;;;;6062160;28;80875;-67
2021/05/10 11:43:40;;;;;;;2.50;1.40;;;25.10;32.80;;;;;;6061885;28;80702;-67
2021/05/10 11:46:40;;;;;;;13.57;1.63;;;25.10;31.90;;;;;;6060553;28;84134;-67
2021/05/10 11:49:41;;;;;;;2.50;1.60;;;25.20;31.90;;;;;;6065607;28;80525;-66
2021/05/10 11:52:42;;;;;;;4.03;1.88;;;25.10;32.40;;;;;;6067989;28;80344;-67
2021/05/10 11:55:42;;;;;;;3.13;1.58;;;25.20;32.60;;;;;;6063797;28;80396;-67
2021/05/10 11:58:55;;;;;;;5.63;1.70;;;25.30;31.90;;;;;;6063655;28;80469;-65
2021/05/10 12:01:55;;;;;;;2.95;1.60;;;25.30;30.60;;;;;;6063251;28;83177;-66
2021/05/10 12:04:56;;;;;;;1.98;1.40;;;25.40;30.10;;;;;;6068745;28;80294;-66
2021/05/10 12:07:56;;;;;;;2.88;2.00;;;25.40;31.40;;;;;;6063876;28;80363;-66
2021/05/10 12:10:57;;;;;;;2.33;1.50;;;25.40;30.50;;;;;;6062360;28;80579;-68
2021/05/10 12:13:57;;;;;;;3.83;1.60;;;25.30;31.00;;;;;;6068231;28;80195;-67
2021/05/10 12:16:58;;;;;;;2.65;1.40;;;25.30;31.30;;;;;;6063014;28;80469;-66
2021/05/10 12:19:59;;;;;;;3.20;2.00;;;25.40;31.20;;;;;;6066615;28;80714;-68
2021/05/10 12:22:59;;;;;;;4.38;1.92;;;25.40;31.40;;;;;;6069127;28;81076;-67
2021/05/10 12:26:00;;;;;;;2.45;1.63;;;25.30;31.90;;;;;;6066928;28;81544;-67
2021/05/10 12:29:00;;;;;;;2.13;1.50;;;25.40;31.60;;;;;;6059554;28;80373;-67
2021/05/10 12:32:01;;;;;;;4.57;1.23;;;25.40;30.60;;;;;;6066064;28;80923;-68
2021/05/10 12:35:01;;;;;;;1.75;1.48;;;25.60;29.90;;;;;;6062028;28;80364;-66
2021/05/10 12:38:02;;;;;;;2.60;1.52;;;25.60;29.30;;;;;;6068069;28;81571;-67
2021/05/10 12:41:02;;;;;;;1.80;1.33;;;25.60;30.10;;;;;;6059450;28;80482;-68
2021/05/10 12:44:03;;;;;;;1.85;1.58;;;25.50;31.50;;;;;;6068354;28;80407;-68
2021/05/10 12:47:03;;;;;;;3.13;1.67;;;25.50;30.80;;;;;;6065122;28;80046;-68
2021/05/10 12:50:04;;;;;;;2.78;1.45;;;25.60;29.80;;;;;;6066544;28;80634;-70
2021/05/10 12:53:05;;;;;;;2.42;1.50;;;25.60;29.50;;;;;;6062460;28;81105;-67
2021/05/10 12:56:06;;;;;;;4.32;1.55;;;25.50;30.80;;;;;;6057482;28;80422;-68
2021/05/10 12:59:06;;;;;;;3.40;1.85;;;25.50;31.50;;;;;;6061023;28;81219;-67
2021/05/10 13:02:07;;;;;;;1.75;1.60;;;25.50;31.10;;;;;;6058244;28;80170;-67
2021/05/10 13:05:07;;;;;;;3.17;1.40;;;25.50;31.30;;;;;;6065935;28;80583;-66
2021/05/10 13:08:08;;;;;;;11.20;1.50;;;25.60;30.40;;;;;;6056461;28;81346;-67
2021/05/10 13:11:09;;;;;;;2.35;1.55;;;25.60;30.90;;;;;;6055433;28;80459;-66
2021/05/10 13:14:12;;;;;;;3.15;1.52;;;25.40;32.20;;;;;;6057353;28;82953;-65
2021/05/10 13:20:43;;;;;;;5.70;1.73;;;25.50;32.40;;;;;;6060994;28;80593;-66
2021/05/10 13:33:26;;;;;;;3.92;1.63;;;25.40;33.70;;;;;;6055630;28;82379;-66
2021/05/10 13:36:28;;;;;;;1.65;1.48;;;25.30;33.60;;;;;;6058927;28;81683;-66
2021/05/10 13:39:28;;;;;;;2.45;1.67;;;25.30;33.80;;;;;;6061086;28;81118;-65
2021/05/10 13:42:32;;;;;;;1.88;1.60;;;25.30;33.70;;;;;;6061901;28;80569;-66
2021/05/10 13:45:33;;;;;;;1.58;1.45;;;25.30;32.90;;;;;;6058787;28;81243;-64
2021/05/10 13:48:33;;;;;;;4.75;1.90;;;25.40;32.50;;;;;;6062036;28;80740;-64
2021/05/10 13:51:34;;;;;;;5.13;2.13;;;25.40;33.00;;;;;;6060093;28;80330;-64
2021/05/10 13:54:34;;;;;;;2.03;1.77;;;25.40;32.60;;;;;;6064010;28;81139;-64
2021/05/10 13:57:35;;;;;;;3.80;1.50;;;25.40;32.80;;;;;;6063142;28;80390;-64
2021/05/10 14:00:35;;;;;;;3.47;1.55;;;25.40;32.60;;;;;;6063713;28;81371;-66
2021/05/10 14:03:36;;;;;;;2.85;1.73;;;25.40;32.70;;;;;;6061902;28;80388;-66
2021/05/10 14:06:36;;;;;;;5.57;1.80;;;25.40;33.00;;;;;;6059510;28;80951;-64
2021/05/10 14:09:37;;;;;;;2.97;1.75;;;25.30;33.00;;;;;;6062898;28;80256;-65
2021/05/10 14:12:37;;;;;;;2.50;1.67;;;25.30;33.20;;;;;;6062317;28;81411;-64
2021/05/10 14:15:39;;;;;;;3.47;1.98;;;25.30;33.40;;;;;;6057305;28;80383;-64
2021/05/10 14:18:56;;;;;;;8.25;1.98;;;25.30;33.70;;;;;;6062747;28;83422;-65
2021/05/10 14:22:03;;;;;;;12.20;2.17;;;25.30;33.60;;;;;;6064193;28;81159;-65
2021/05/10 14:25:05;;;;;;;7.82;2.33;;;25.30;33.60;;;;;;6059756;28;80618;-64
2021/05/10 14:28:06;;;;;;;5.35;2.00;;;25.30;34.00;;;;;;6064363;28;80131;-64
2021/05/10 14:31:06;;;;;;;3.92;2.15;;;25.30;33.90;;;;;;6060221;28;81702;-65
2021/05/10 14:34:07;;;;;;;3.10;1.80;;;25.30;34.60;;;;;;6061458;28;81175;-64
2021/05/10 14:37:07;;;;;;;4.43;1.90;;;25.20;32.90;;;;;;6060529;28;80303;-64
2021/05/10 14:40:08;;;;;;;3.85;1.90;;;25.30;33.30;;;;;;6059524;28;80330;-64
2021/05/10 14:43:08;;;;;;;4.35;2.17;;;25.30;33.10;;;;;;6058200;28;81507;-63
2021/05/10 14:46:10;;;;;;;4.18;1.95;;;25.20;33.80;;;;;;6067153;28;81622;-64
2021/05/10 14:49:11;;;;;;;3.55;1.67;;;25.20;32.90;;;;;;6063358;28;80785;-65
2021/05/10 14:52:11;;;;;;;2.70;1.60;;;25.20;32.90;;;;;;6065618;28;80722;-65
2021/05/10 14:55:12;;;;;;;6.90;2.28;;;25.20;32.80;;;;;;6063781;28;81424;-65
2021/05/10 14:58:12;;;;;;;6.68;2.03;;;25.20;33.40;;;;;;6066744;28;80760;-64
2021/05/10 15:01:15;;;;;;;1.83;1.60;;;25.20;33.00;;;;;;6058435;28;80168;-65
2021/05/10 15:04:16;;;;;;;4.55;1.80;;;25.20;33.60;;;;;;6061929;28;80656;-64
2021/05/10 15:07:17;;;;;;;6.65;1.67;;;25.20;32.90;;;;;;6056988;28;80383;-64
2021/05/10 15:10:17;;;;;;;5.57;2.20;;;25.30;32.40;;;;;;6063075;28;80734;-65
2021/05/10 15:13:18;;;;;;;3.38;1.70;;;25.30;32.30;;;;;;6061700;28;81080;-67
2021/05/10 15:16:18;;;;;;;2.88;1.52;;;25.30;30.80;;;;;;6063898;28;81520;-64
2021/05/10 15:19:19;;;;;;;4.72;1.60;;;25.30;30.80;;;;;;6071176;28;81174;-64
2021/05/10 15:22:19;;;;;;;3.35;1.42;;;25.30;31.50;;;;;;6070921;28;80622;-66
2021/05/10 15:25:20;;;;;;;2.78;1.52;;;25.30;31.30;;;;;;6074972;28;80478;-64
2021/05/10 15:28:20;;;;;;;2.90;1.70;;;25.20;31.20;;;;;;6064370;28;89891;-64
2021/05/10 15:31:21;;;;;;;4.03;1.55;;;25.30;31.30;;;;;;6068716;28;81148;-66
2021/05/10 15:34:22;;;;;;;2.13;1.80;;;25.20;32.60;;;;;;6067772;28;81431;-65
2021/05/10 15:37:22;;;;;;;5.50;2.13;;;25.20;32.60;;;;;;6063440;28;80694;-64
2021/05/10 15:40:23;;;;;;;3.13;1.60;;;25.20;32.10;;;;;;6061758;28;80231;-64
2021/05/10 15:43:23;;;;;;;4.35;1.88;;;25.20;32.90;;;;;;6064276;28;81553;-65
2021/05/10 15:46:24;;;;;;;3.63;2.10;;;25.20;32.40;;;;;;6069809;28;81082;-64
2021/05/10 15:49:24;;;;;;;3.80;1.85;;;25.20;33.30;;;;;;6061365;28;80302;-65
2021/05/10 15:52:25;;;;;;;2.95;1.52;;;25.10;32.80;;;;;;6061496;28;81599;-65
2021/05/10 15:55:27;;;;;;;3.05;1.65;;;25.20;32.50;;;;;;6060906;28;83810;-64
2021/05/10 15:58:27;;;;;;;2.25;1.73;;;25.10;32.30;;;;;;6061678;28;81311;-64
2021/05/10 16:01:28;;;;;;;7.63;1.77;;;25.20;32.30;;;;;;6062906;28;80888;-64